Terminal Aerodrome Forecast
Issued by NWS Sterling, VA

Home | Current Version | Previous Version | Text Only | Print | Product List | Glossary On
Versions: 1 2 3 4 5 6 7 8 9 10 11 12 13 14 15 16 17 18 19 20 21
000
FTUS41 KLWX 232300
TAFDCA
TAF
KDCA 232338Z 2400/2424 32016G22KT P6SM FEW050
     FM240200 33014KT P6SM SKC
     FM240800 32009KT P6SM SKC
     FM241400 32015G25KT P6SM FEW250
     FM242100 31009KT P6SM FEW250
     FM242300 32005KT P6SM SCT250=

USA.gov is the U.S. government's official web portal to all federal, state and local government web resources and services.